createdAt,value
2023-02-11T00:00:39.234Z,14.4
2023-02-11T00:06:44.602Z,14.4
2023-02-11T00:12:50.174Z,14.4
2023-02-11T00:18:55.978Z,14.4
2023-02-11T00:25:01.931Z,14.4
2023-02-11T00:31:07.450Z,14.4
2023-02-11T00:37:14.087Z,14.4
2023-02-11T00:43:19.749Z,14.4
2023-02-11T00:49:25.708Z,14.4
2023-02-11T00:55:31.277Z,14.4
2023-02-11T01:01:37.028Z,14.4
2023-02-11T01:07:43.423Z,14.4
2023-02-11T01:13:48.961Z,14.4
2023-02-11T01:19:54.519Z,14.4
2023-02-11T01:26:00.514Z,14.4
2023-02-11T01:32:05.894Z,14.4
2023-02-11T01:38:12.051Z,14.4
2023-02-11T01:44:18.045Z,14.4
2023-02-11T01:50:24.022Z,14.3
2023-02-11T01:56:29.804Z,14.4
2023-02-11T02:02:35.979Z,14.4
2023-02-11T02:08:41.768Z,14.3
2023-02-11T02:14:47.430Z,14.3
2023-02-11T02:20:53.175Z,14.3
2023-02-11T02:26:58.767Z,14.3
2023-02-11T02:33:20.450Z,14.3
2023-02-11T02:39:28.041Z,14.3
2023-02-11T02:45:34.234Z,14.3
2023-02-11T02:51:40.003Z,14.3
2023-02-11T02:57:45.642Z,14.3
2023-02-11T03:03:51.280Z,14.3
2023-02-11T03:09:57.325Z,14.3
2023-02-11T03:16:04.219Z,14.3
2023-02-11T03:22:09.779Z,14.3
2023-02-11T03:28:16.147Z,14.3
2023-02-11T03:34:21.876Z,14.3
2023-02-11T03:40:27.655Z,14.3
2023-02-11T03:46:33.630Z,14.3
2023-02-11T03:52:39.430Z,14.3
2023-02-11T03:58:45.199Z,14.3
2023-02-11T04:04:50.965Z,14.3
2023-02-11T04:10:57.355Z,14.3
2023-02-11T04:17:02.727Z,14.3
2023-02-11T04:23:08.913Z,14.3
2023-02-11T04:29:15.098Z,14.3
2023-02-11T04:35:20.869Z,14.3
2023-02-11T04:41:26.653Z,14.3
2023-02-11T04:47:32.426Z,14.3
2023-02-11T04:53:38.014Z,14.3
2023-02-11T04:59:43.581Z,14.3
2023-02-11T05:05:49.648Z,14.3
2023-02-11T05:11:56.020Z,14.3
2023-02-11T05:18:01.784Z,14.3
2023-02-11T05:24:08.523Z,14.3
2023-02-11T05:30:14.296Z,14.3
2023-02-11T05:36:20.478Z,14.3
2023-02-11T05:42:26.266Z,14.3
2023-02-11T05:48:31.624Z,14.3
2023-02-11T05:54:36.854Z,14.3
2023-02-11T06:00:42.156Z,14.3
2023-02-11T06:06:47.744Z,14.3
2023-02-11T06:12:53.829Z,14.3
2023-02-11T06:18:59.475Z,14.4
2023-02-11T06:25:05.049Z,14.4
2023-02-11T06:31:10.646Z,14.4
2023-02-11T06:37:16.821Z,14.4
2023-02-11T06:43:22.834Z,14.4
2023-02-11T06:49:28.778Z,14.4
2023-02-11T06:55:34.538Z,14.4
2023-02-11T07:01:40.411Z,14.4
2023-02-11T07:07:46.098Z,14.4
2023-02-11T07:13:51.269Z,14.4
2023-02-11T07:19:57.239Z,14.4
2023-02-11T07:26:03.227Z,14.4
2023-02-11T07:32:09.576Z,14.4
2023-02-11T07:38:15.826Z,14.4
2023-02-11T07:44:21.799Z,14.4
2023-02-11T07:50:27.592Z,14.4
2023-02-11T07:56:33.128Z,14.4
2023-02-11T08:02:38.761Z,14.5
2023-02-11T08:08:43.945Z,14.5
2023-02-11T08:14:49.690Z,14.5
2023-02-11T08:20:55.606Z,14.5
2023-02-11T08:27:01.592Z,14.5
2023-02-11T08:33:07.453Z,14.5
2023-02-11T08:39:19.019Z,14.6
2023-02-11T08:45:25.356Z,14.5
2023-02-11T08:51:31.247Z,14.6
2023-02-11T08:57:37.146Z,14.6
2023-02-11T09:03:43.013Z,14.6
2023-02-11T09:09:48.609Z,14.6
2023-02-11T09:15:54.373Z,14.6
2023-02-11T09:22:00.342Z,14.6
2023-02-11T09:28:05.930Z,14.6
2023-02-11T09:34:12.122Z,14.6
2023-02-11T09:40:19.117Z,14.6
2023-02-11T09:46:25.153Z,14.6
2023-02-11T09:52:31.091Z,14.6
2023-02-11T09:58:36.455Z,14.6
2023-02-11T10:04:42.243Z,14.7
2023-02-11T10:10:48.204Z,14.7
2023-02-11T10:16:55.200Z,14.7
2023-02-11T10:23:00.771Z,14.7
2023-02-11T10:29:06.142Z,14.7
2023-02-11T10:35:12.737Z,14.7
2023-02-11T10:41:18.195Z,14.7
2023-02-11T10:47:23.480Z,14.8
2023-02-11T10:53:29.254Z,14.8
2023-02-11T10:59:35.234Z,14.8
2023-02-11T11:05:41.398Z,14.8
2023-02-11T11:11:47.193Z,14.8
2023-02-11T11:17:53.187Z,14.8
2023-02-11T11:24:26.123Z,14.9
2023-02-11T11:30:32.419Z,14.8
2023-02-11T11:36:38.563Z,14.9
2023-02-11T11:42:44.752Z,14.9
2023-02-11T11:48:50.741Z,14.9
2023-02-11T11:54:56.091Z,14.9
2023-02-11T12:01:01.482Z,14.9
2023-02-11T12:07:07.445Z,14.9
2023-02-11T12:13:13.232Z,14.9
2023-02-11T12:19:19.405Z,14.9
2023-02-11T12:25:25.379Z,14.9
2023-02-11T12:31:31.582Z,14.9
2023-02-11T12:37:37.756Z,14.9
2023-02-11T12:43:43.839Z,15
2023-02-11T12:49:50.338Z,15
2023-02-11T12:55:56.095Z,15
2023-02-11T13:02:02.327Z,15
2023-02-11T13:08:08.260Z,15
2023-02-11T13:14:14.487Z,15
2023-02-11T13:20:20.230Z,15
2023-02-11T13:26:26.309Z,15
2023-02-11T13:32:32.400Z,15
2023-02-11T13:38:38.582Z,15
2023-02-11T13:44:44.375Z,15
2023-02-11T13:50:50.732Z,15.1
2023-02-11T13:56:56.928Z,15.1
2023-02-11T14:03:02.509Z,15.1
2023-02-11T14:09:08.314Z,15.1
2023-02-11T14:15:14.492Z,15.1
2023-02-11T14:21:20.472Z,15.1
2023-02-11T14:27:26.271Z,15.1
2023-02-11T14:33:32.235Z,15.1
2023-02-11T14:39:38.832Z,15.1
2023-02-11T14:45:44.796Z,15.1
2023-02-11T14:51:50.994Z,15.1
2023-02-11T14:57:57.385Z,15.1
2023-02-11T15:04:03.356Z,15.1
2023-02-11T15:10:08.936Z,15.1
2023-02-11T15:16:15.133Z,15.1
2023-02-11T15:22:21.333Z,15.1
2023-02-11T15:28:27.561Z,15.1
2023-02-11T15:34:33.871Z,15.1
2023-02-11T15:40:39.857Z,15.1
2023-02-11T15:46:46.095Z,15.1
2023-02-11T15:52:52.227Z,15.1
2023-02-11T15:58:57.890Z,15.1
2023-02-11T16:05:03.708Z,15.1
2023-02-11T16:11:09.830Z,15.1
2023-02-11T16:17:15.613Z,15.1
2023-02-11T16:23:21.729Z,15.1
2023-02-11T16:29:28.120Z,15.1
2023-02-11T16:35:34.315Z,15.1
2023-02-11T16:41:40.069Z,15.1
2023-02-11T16:47:45.857Z,15.1
2023-02-11T16:53:51.646Z,15.1
2023-02-11T16:59:57.620Z,15.1
2023-02-11T17:06:04.206Z,15.1
2023-02-11T17:12:10.196Z,15.1
2023-02-11T17:18:15.963Z,15.1
2023-02-11T17:24:21.551Z,15.1
2023-02-11T17:30:27.557Z,15.1
2023-02-11T17:36:33.298Z,15.1
2023-02-11T17:42:39.367Z,15.1
2023-02-11T17:48:44.901Z,15.1
2023-02-11T17:54:50.622Z,15.1
2023-02-11T18:00:56.649Z,15.1
2023-02-11T18:07:03.012Z,15.1
2023-02-11T18:13:08.976Z,15.1
2023-02-11T18:19:14.952Z,15.1
2023-02-11T18:25:20.830Z,15.1
2023-02-11T18:31:26.693Z,15.1
2023-02-11T18:37:32.708Z,15.1
2023-02-11T18:43:38.886Z,15.1
2023-02-11T18:49:44.254Z,15.1
2023-02-11T18:55:50.801Z,15.1
2023-02-11T19:01:58.064Z,15.1
2023-02-11T19:08:03.734Z,15.1
2023-02-11T19:14:10.008Z,15.1
2023-02-11T19:20:16.191Z,15.1
2023-02-11T19:26:22.380Z,15.1
2023-02-11T19:32:28.790Z,15.1
2023-02-11T19:38:34.361Z,15.1
2023-02-11T19:44:40.210Z,15.1
2023-02-11T19:50:46.168Z,15.1
2023-02-11T19:56:52.281Z,15.1
2023-02-11T20:02:58.339Z,15.1
2023-02-11T20:09:04.945Z,15.1
2023-02-11T20:15:10.526Z,15.1
2023-02-11T20:21:16.493Z,15.1
2023-02-11T20:27:22.199Z,15.1
2023-02-11T20:33:27.991Z,15.1
2023-02-11T20:39:33.964Z,15.1
2023-02-11T20:45:39.738Z,15.1
2023-02-11T20:51:45.925Z,15.1
2023-02-11T20:57:51.175Z,15.1
2023-02-11T21:03:57.085Z,15.1
2023-02-11T21:10:03.041Z,15.1
2023-02-11T21:16:08.735Z,15.1
2023-02-11T21:22:15.830Z,15.1
2023-02-11T21:28:22.044Z,15.1
2023-02-11T21:34:28.217Z,15.1
2023-02-11T21:40:33.800Z,15.1
2023-02-11T21:46:39.872Z,15.1
2023-02-11T21:52:45.213Z,15.1
2023-02-11T21:58:50.782Z,15.1
2023-02-11T22:04:56.408Z,15.1
2023-02-11T22:11:02.236Z,15.1
2023-02-11T22:17:08.291Z,15.1
2023-02-11T22:23:14.200Z,15.1
2023-02-11T22:29:19.779Z,15.1
2023-02-11T22:35:25.777Z,15.1
2023-02-11T22:41:31.553Z,15.1
2023-02-11T22:47:37.092Z,15
2023-02-11T22:53:42.682Z,15
2023-02-11T22:59:48.668Z,15
2023-02-11T23:05:54.492Z,15
2023-02-11T23:12:01.451Z,15
2023-02-11T23:18:06.865Z,15
2023-02-11T23:24:12.994Z,15
2023-02-11T23:30:19.390Z,15
2023-02-11T23:36:25.576Z,15
2023-02-11T23:42:31.253Z,15
2023-02-11T23:48:37.205Z,15
2023-02-11T23:54:42.979Z,14.9
